Hammond, Maine
Current Conditions -  °F | °C
As of 6:53 AM on Monday 26 Jan 2015 (Local Time) from KHUL Reporting Station
Clear Clear  
Wind Chill: -12°   Ceiling: Unl
Heat Index: -2°   Visibility: 10mi
Dew Point: -11°   Wind: 5mph
Humidity: 66%   Direction: 340°NNW
Pressure: 30.07"   Gusts: NA
Location:  46.1163°N, 67.9329°W
Report Text: KHUL 261153Z AUTO 34004KT 10SM CLR M19/M24 A3007 RMK AO2 SLP198 T11891239 11150 21189 51035
Loading
Personal Weather Stations






























Interactive Weather Map New forecast layout! Learn more

10-Day Weather Forecast

Advertisements
Track Severe Weather on mobile